Venango Regional Airport
KFKL : now visible

Airfield :











YOU CAN JOIN US ON...

 
LOGIN :

Register | Disclaimer

   EN    FR    IT 

 









Legend :    VFR   Marginal VFR   IFR   Intensive IFR   Very Intensive IFR
Visi :
Ceiling :
>= 8 km
>= 3000ft
5 to 8 km
1000 to 3000 ft
1500m to 5 km
500 to 1000 ft
800 to 1500m
200 to 500 ft
< 800m
< 200 ft
Symbols :   Thunderstorms  Fog  Heavy snow  Heavy precipitations  Wind > 20 kt






- Airport Elevation : 1540 ft


KFKL - Venango Regional

CURRENT METAR :
  • 282156Z AUTO 31007KT 270V340 10SM FEW021 SCT028 BKN065 17/12 A2993 RMK AO2 SLP133 T01720122

EXPIRED METARs :
  • 282056Z AUTO 30009G15KT 10SM FEW019 SCT055 BKN070 16/13 A2992 RMK AO2 RAB1958E44 SLP130 P0001 60003 T01610128 51013
  • 281956Z AUTO 32007G14KT 290V360 10SM SCT019 BKN050 OVC090 16/13 A2991 RMK AO2 LTG DSNT SE TSE00RAB17E35 SLP127 P0000 T01610128
  • 281906Z AUTO 30005KT 10SM FEW028 BKN050 OVC080 16/15 A2991 RMK AO2 TSE00
  • 281856Z AUTO VRB06KT 10SM TS FEW028 BKN048 OVC080 16/16 A2991 RMK AO2 TSB35RAB32E54 SLP126 P0002 T01560156
  • 281821Z AUTO VRB06G15KT 10SM FEW024 SCT032 OVC080 18/13 A2989 RMK AO2
  • 281756Z AUTO 30006KT 10SM FEW018 BKN028 BKN080 17/12 A2988 RMK AO2 SLP116 60002 T01670122 10172 20139 50001
  • 281713Z AUTO 31009G14KT 10SM FEW018 SCT028 BKN075 17/13 A2989 RMK AO2

TAF KFKL
Valid from the 28 at 19:00 until the 29 at 18:00 UTC


281841Z 2819/2918 30009G16KT P6SM BKN050
TEMPO 2819/2821 5SM -TSRA BKN025CB
FM290100 VRB03KT P6SM BKN070
FM290700 VRB02KT P6SM BKN015
FM290900 VRB02KT P6SM BKN009
FM291500 33006KT P6SM -SHRA BKN015
KZOB FIR / North America



MET'MAP, your aeronautical weather chart ! - Copyright ORBIFLY December 2007 - Disclaimer

ORBIFLY MET'MAP TEAM :

Programming & Development : Alexandra Zaïnal
Original concept : Baudouin d'Aumeries
Technical & hardware support : Manuel Goepfert
Assistance : Marc-Olivier Méhu




SOURCES & CREDITS :

   NOAA       Earth
Advisory